Time;durP1;ratioP1;P1;durP2;ratioP2;P2;SDS_P1;SDS_P2;PMS_P1;PMS_P2;Temp;Humidity;BMP_temperature;BMP_pressure;BME280_temperature;BME280_humidity;BME280_pressure;Samples;Min_cycle;Max_cycle;Signal;HPM_P1;HPM_P2
2023/01/09 00:02:12;;;;;;;8.43;5.07;;;;;;;10.08;81.05;101439.16;5113176;28;20062;-89
2023/01/09 00:04:37;;;;;;;10.15;4.38;;;;;;;10.04;81.23;101446.56;5093854;28;20043;-89
2023/01/09 00:07:03;;;;;;;9.90;4.47;;;;;;;10.04;81.50;101443.00;5111952;28;20402;-90
2023/01/09 00:09:28;;;;;;;10.90;5.47;;;;;;;9.99;81.84;101419.13;5111804;28;20553;-90
2023/01/09 00:11:54;;;;;;;10.68;5.88;;;;;;;10.16;81.87;101445.78;5111342;28;20031;-89
2023/01/09 00:14:21;;;;;;;8.35;4.47;;;;;;;10.09;81.42;101436.34;5113247;28;20028;-91
2023/01/09 00:16:47;;;;;;;14.02;5.10;;;;;;;10.09;81.14;101440.91;5112616;28;20019;-88
2023/01/09 00:19:13;;;;;;;8.05;4.22;;;;;;;10.01;81.16;101438.69;5111996;28;20108;-89
2023/01/09 00:21:38;;;;;;;7.75;5.15;;;;;;;10.02;81.17;101436.88;5111346;28;20031;-88
2023/01/09 00:24:04;;;;;;;12.00;4.65;;;;;;;10.03;80.82;101438.63;5111660;28;20111;-89
2023/01/09 00:26:30;;;;;;;7.63;4.25;;;;;;;9.96;80.56;101435.47;5111234;28;20030;-89
2023/01/09 00:28:55;;;;;;;14.38;3.92;;;;;;;9.93;80.39;101430.28;5111863;28;20019;-89
2023/01/09 00:31:21;;;;;;;8.70;4.57;;;;;;;10.00;80.72;101446.88;5111745;28;20024;-88
2023/01/09 00:33:57;;;;;;;12.35;4.82;;;;;;;9.99;80.65;101442.47;5111322;28;20023;-89
2023/01/09 00:36:23;;;;;;;9.07;5.30;;;;;;;10.04;80.36;101437.63;5111403;28;20024;-88
2023/01/09 00:38:49;;;;;;;22.23;5.18;;;;;;;9.89;80.37;101433.25;5093655;28;20566;-88
2023/01/09 00:41:19;;;;;;;8.02;4.90;;;;;;;9.77;80.70;101427.75;5116827;28;20063;-90
2023/01/09 00:43:50;;;;;;;14.45;4.78;;;;;;;9.77;80.70;101430.44;5136000;28;20071;-89
2023/01/09 00:46:18;;;;;;;9.13;4.15;;;;;;;9.81;81.30;101429.25;5136317;28;20020;-88
2023/01/09 00:48:45;;;;;;;8.27;4.80;;;;;;;9.83;81.42;101423.78;5134798;28;20048;-89
2023/01/09 00:51:10;;;;;;;11.98;5.70;;;;;;;9.80;81.73;101414.13;5134908;28;20047;-88
2023/01/09 00:53:39;;;;;;;16.05;5.05;;;;;;;9.83;81.50;101430.03;5127414;28;20103;-89
2023/01/09 00:56:10;;;;;;;6.28;4.25;;;;;;;9.80;81.48;101422.16;5112052;28;20501;-89
2023/01/09 00:58:36;;;;;;;8.30;4.35;;;;;;;9.87;81.50;101411.88;5111305;28;20042;-89
2023/01/09 01:01:02;;;;;;;9.80;4.75;;;;;;;9.93;81.06;101418.69;5110517;28;20482;-89
2023/01/09 01:03:27;;;;;;;11.20;5.20;;;;;;;9.78;80.74;101399.91;5110266;28;20027;-90
2023/01/09 01:08:37;;;;;;;9.15;4.57;;;;;;;9.84;80.06;101399.53;5047801;28;20106;-88
2023/01/09 01:11:05;;;;;;;7.25;4.07;;;;;;;9.81;80.51;101410.44;5047895;28;20036;-88
2023/01/09 01:13:31;;;;;;;7.60;4.57;;;;;;;9.72;80.68;101394.94;5030673;28;20051;-89
2023/01/09 01:15:56;;;;;;;6.75;4.45;;;;;;;9.77;81.03;101375.84;5047960;28;20472;-90
2023/01/09 01:18:22;;;;;;;6.40;4.40;;;;;;;9.72;81.60;101378.81;5047948;28;20403;-88
2023/01/09 01:20:47;;;;;;;12.27;4.88;;;;;;;9.67;82.17;101394.38;5048201;28;20625;-90
2023/01/09 01:23:13;;;;;;;16.10;4.82;;;;;;;9.70;82.22;101374.50;5047991;28;20447;-89
2023/01/09 01:25:40;;;;;;;9.70;4.75;;;;;;;9.67;82.10;101375.56;5030805;28;20036;-88
2023/01/09 01:28:06;;;;;;;8.95;4.78;;;;;;;9.63;82.16;101374.03;5047375;28;20040;-89
2023/01/09 01:30:32;;;;;;;12.18;4.55;;;;;;;9.65;82.62;101371.28;5047781;28;20092;-89
2023/01/09 01:32:58;;;;;;;14.32;4.72;;;;;;;9.68;82.96;101366.56;5030869;28;20060;-89
2023/01/09 01:35:25;;;;;;;7.18;4.60;;;;;;;9.73;82.63;101364.44;5047330;28;20072;-90
2023/01/09 01:37:51;;;;;;;16.10;5.43;;;;;;;9.69;81.80;101345.94;5047649;28;20029;-90
2023/01/09 01:40:16;;;;;;;9.45;4.57;;;;;;;9.73;81.47;101348.31;5063005;28;20181;-90
2023/01/09 01:42:50;;;;;;;18.17;4.57;;;;;;;9.69;82.15;101352.16;5067854;28;20043;-90
2023/01/09 01:45:22;;;;;;;8.68;4.40;;;;;;;9.67;82.05;101354.09;5067425;28;20042;-88
2023/01/09 01:47:53;;;;;;;8.80;4.73;;;;;;;9.60;81.99;101331.28;5067386;28;20549;-90
2023/01/09 01:50:43;;;;;;;12.15;4.95;;;;;;;9.63;82.27;101336.44;5067467;28;20131;-89
2023/01/09 01:53:08;;;;;;;11.10;4.63;;;;;;;9.68;82.35;101331.66;5051337;28;20138;-88
2023/01/09 01:55:37;;;;;;;17.75;5.43;;;;;;;9.62;82.53;101334.75;5069597;28;20470;-91
2023/01/09 01:58:06;;;;;;;9.82;4.82;;;;;;;9.60;82.84;101331.28;5067945;28;20097;-90
2023/01/09 02:00:36;;;;;;;9.55;4.57;;;;;;;9.69;83.35;101338.72;5067236;28;20430;-89
2023/01/09 02:03:02;;;;;;;14.98;4.70;;;;;;;9.64;82.79;101327.44;5067732;28;20531;-90
2023/01/09 02:05:28;;;;;;;11.07;5.03;;;;;;;9.70;83.08;101331.53;5076320;28;20036;-89
2023/01/09 02:07:53;;;;;;;19.98;5.05;;;;;;;9.67;83.14;101326.38;5068237;28;20047;-90
2023/01/09 02:10:22;;;;;;;16.23;5.25;;;;;;;9.70;83.17;101310.91;5072624;28;20087;-89
2023/01/09 02:12:48;;;;;;;6.25;4.22;;;;;;;9.69;82.83;101311.03;5110821;28;20039;-88
2023/01/09 02:15:14;;;;;;;19.63;5.10;;;;;;;9.81;82.94;101321.78;5114952;28;20030;-89
2023/01/09 02:18:21;;;;;;;23.15;4.63;;;;;;;9.71;83.04;101306.41;5114444;28;20042;-89
2023/01/09 02:21:11;;;;;;;15.98;4.57;;;;;;;9.85;82.82;101320.63;5114383;28;20023;-88
2023/01/09 02:23:48;;;;;;;11.15;4.35;;;;;;;9.88;82.72;101314.19;5114354;28;20031;-90
2023/01/09 02:26:51;;;;;;;12.50;5.05;;;;;;;9.94;83.03;101313.75;5113809;28;20450;-89
2023/01/09 02:29:25;;;;;;;;;;;;;;;9.97;83.10;101321.63;5011326;28;20042;-90
2023/01/09 02:32:29;;;;;;;11.00;4.78;;;;;;;10.04;83.00;101320.25;4995249;28;20463;-90
2023/01/09 02:35:13;;;;;;;12.32;4.57;;;;;;;9.95;82.53;101304.75;4971849;28;20122;-90
2023/01/09 02:37:56;;;;;;;12.88;3.60;;;;;;;10.10;82.47;101321.66;4956062;28;20039;-88
2023/01/09 02:40:50;;;;;;;12.00;3.85;;;;;;;10.02;81.68;101310.56;4955536;28;20501;-88
2023/01/09 02:43:16;;;;;;;8.50;3.80;;;;;;;9.97;80.61;101296.59;4972209;28;20172;-88
2023/01/09 02:45:42;;;;;;;8.60;3.60;;;;;;;9.92;79.45;101298.72;4972164;28;20030;-87
2023/01/09 02:48:11;;;;;;;15.18;3.00;;;;;;;9.89;79.35;101304.28;4971670;28;20034;-89
2023/01/09 02:51:12;;;;;;;8.82;3.22;;;;;;;9.92;80.76;101315.69;4971858;28;20168;-89
2023/01/09 02:53:59;;;;;;;9.98;3.50;;;;;;;9.90;81.13;101306.03;4952195;29;20403;-90
2023/01/09 02:56:54;;;;;;;7.88;3.30;;;;;;;9.89;81.49;101305.16;4953536;29;20035;-89
2023/01/09 02:59:32;;;;;;;7.32;3.33;;;;;;;9.82;81.77;101303.84;4959771;29;20097;-88
2023/01/09 03:02:03;;;;;;;8.80;3.42;;;;;;;9.80;82.19;101311.16;4976593;28;20056;-87
2023/01/09 03:04:48;;;;;;;22.60;5.75;;;;;;;9.89;82.31;101305.16;4976491;29;20112;-88
2023/01/09 03:07:26;;;;;;;9.95;3.20;;;;;;;9.85;82.04;101282.16;5019563;28;20538;-89
2023/01/09 03:09:59;;;;;;;7.13;2.83;;;;;;;9.91;82.28;101307.75;5030186;28;20041;-90
2023/01/09 03:12:28;;;;;;;9.07;2.95;;;;;;;9.85;81.96;101288.38;5044518;28;20857;-88
2023/01/09 03:14:57;;;;;;;18.00;4.47;;;;;;;9.77;81.62;101280.00;5050738;28;20053;-89
2023/01/09 03:17:36;;;;;;;9.60;2.70;;;;;;;9.98;81.42;101309.91;5040191;28;20060;-89
2023/01/09 03:20:04;;;;;;;9.35;2.72;;;;;;;9.98;81.04;101303.66;5060576;28;20047;-89
2023/01/09 03:22:30;;;;;;;11.88;3.45;;;;;;;9.98;81.06;101287.53;5053700;28;20033;-92
2023/01/09 03:24:55;;;;;;;6.93;2.83;;;;;;;9.93;80.94;101295.94;5049540;28;20045;-89
2023/01/09 03:27:21;;;;;;;13.57;3.22;;;;;;;9.91;81.00;101297.84;5050105;28;20032;-89
2023/01/09 03:29:46;;;;;;;7.78;2.65;;;;;;;10.03;80.79;101301.56;5064393;28;20039;-89
2023/01/09 03:32:12;;;;;;;7.60;2.40;;;;;;;9.91;80.88;101297.00;5095789;28;20020;-89
2023/01/09 03:34:37;;;;;;;12.82;2.85;;;;;;;9.96;80.86;101300.25;5094796;28;20040;-90
2023/01/09 03:37:03;;;;;;;8.88;3.63;;;;;;;9.97;80.75;101304.66;5077748;28;20076;-89
2023/01/09 03:39:30;;;;;;;8.15;2.63;;;;;;;9.94;81.10;101297.63;5112453;28;20370;-89
2023/01/09 03:41:55;;;;;;;12.80;3.10;;;;;;;10.06;81.39;101312.09;5094039;28;20032;-90
2023/01/09 03:44:21;;;;;;;17.30;3.30;;;;;;;10.06;81.31;101299.50;5112822;28;20028;-88
2023/01/09 03:46:49;;;;;;;8.15;2.75;;;;;;;9.94;80.89;101291.44;5112992;28;20543;-89
2023/01/09 03:49:14;;;;;;;21.48;3.08;;;;;;;10.01;80.80;101309.69;5112378;28;20675;-90
2023/01/09 03:51:40;;;;;;;6.30;2.65;;;;;;;10.02;81.42;101305.19;5112184;28;20052;-89
2023/01/09 03:54:05;;;;;;;10.52;2.83;;;;;;;10.04;81.76;101305.94;5112522;28;20026;-90
2023/01/09 03:56:31;;;;;;;25.88;4.13;;;;;;;10.10;82.03;101303.69;5112255;28;20027;-90
2023/01/09 03:58:56;;;;;;;15.82;4.00;;;;;;;10.08;82.13;101299.41;5112358;28;20030;-91
2023/01/09 04:01:22;;;;;;;11.75;4.47;;;;;;;9.98;82.82;101295.59;5112149;28;20031;-89
2023/01/09 04:03:47;;;;;;;9.10;3.42;;;;;;;10.03;83.04;101301.56;5112946;28;20051;-89
2023/01/09 04:06:13;;;;;;;8.10;2.95;;;;;;;10.03;82.33;101301.56;5112459;28;20470;-89
2023/01/09 04:08:38;;;;;;;9.40;3.30;;;;;;;10.07;82.11;101308.41;5093582;28;20049;-90
2023/01/09 04:11:04;;;;;;;15.43;3.20;;;;;;;10.03;81.80;101301.56;5112101;28;20055;-90
2023/01/09 04:13:29;;;;;;;8.25;2.35;;;;;;;10.07;81.91;101308.41;5114544;28;20453;-89
2023/01/09 04:15:54;;;;;;;5.97;2.15;;;;;;;10.00;81.52;101296.38;5096724;28;20111;-91
2023/01/09 04:18:20;;;;;;;11.02;3.47;;;;;;;9.79;81.39;101291.47;5117168;28;20047;-89
2023/01/09 04:20:47;;;;;;;8.95;3.42;;;;;;;9.89;81.52;101306.97;5112485;28;20031;-89
2023/01/09 04:23:12;;;;;;;21.42;3.97;;;;;;;9.87;80.98;101311.59;5112441;28;20015;-90
2023/01/09 04:25:37;;;;;;;14.52;2.88;;;;;;;9.95;81.29;101311.94;5112360;28;20391;-90
2023/01/09 04:28:03;;;;;;;8.18;3.08;;;;;;;9.80;81.12;101295.91;5115591;28;20049;-88
2023/01/09 04:30:29;;;;;;;8.68;2.85;;;;;;;9.80;80.95;101301.28;5096047;28;20024;-90
2023/01/09 04:32:54;;;;;;;13.02;3.42;;;;;;;9.71;80.98;101299.22;5111967;28;20024;-89
2023/01/09 04:35:20;;;;;;;9.05;3.05;;;;;;;9.53;81.69;101267.34;5112728;28;20096;-89
2023/01/09 04:37:45;;;;;;;10.35;3.22;;;;;;;9.62;81.66;101278.34;5094177;28;20498;-91
2023/01/09 04:40:12;;;;;;;13.30;3.25;;;;;;;9.74;81.95;101284.72;5095993;28;20038;-90
2023/01/09 04:42:38;;;;;;;12.30;2.63;;;;;;;9.73;82.25;101289.22;5125117;28;20272;-88
2023/01/09 04:45:05;;;;;;;14.68;3.47;;;;;;;9.78;82.60;101275.50;5136462;28;20030;-88
2023/01/09 04:47:31;;;;;;;20.33;2.90;;;;;;;9.91;83.26;101275.53;5136055;28;20028;-88
2023/01/09 04:49:57;;;;;;;7.80;3.20;;;;;;;9.87;83.20;101274.00;5113663;28;20038;-90
2023/01/09 04:52:23;;;;;;;16.77;3.67;;;;;;;9.87;82.96;101282.06;5130393;28;20047;-89
2023/01/09 04:54:48;;;;;;;12.95;3.72;;;;;;;9.82;82.66;101272.47;5103821;28;20050;-90
2023/01/09 04:57:14;;;;;;;15.98;3.45;;;;;;;9.76;82.87;101272.88;5114055;28;20092;-90
2023/01/09 04:59:39;;;;;;;14.07;3.97;;;;;;;9.89;83.39;101288.19;5094902;28;20077;-91
2023/01/09 05:02:05;;;;;;;13.88;4.55;;;;;;;9.77;82.95;101280.00;5114705;28;20486;-90
2023/01/09 05:04:30;;;;;;;12.52;2.95;;;;;;;9.84;83.38;101280.44;5114241;28;20394;-89
2023/01/09 05:06:55;;;;;;;11.75;3.50;;;;;;;9.84;83.76;101284.00;5095435;28;20028;-89
2023/01/09 05:09:21;;;;;;;26.23;4.70;;;;;;;9.82;84.08;101291.28;5113555;28;20030;-89
2023/01/09 05:11:48;;;;;;;26.27;3.25;;;;;;;9.93;84.41;101300.44;5112625;28;20122;-89
2023/01/09 05:14:13;;;;;;;15.40;3.42;;;;;;;9.87;84.57;101290.13;5112596;28;20024;-87
2023/01/09 05:16:39;;;;;;;16.08;3.00;;;;;;;9.84;84.49;101286.69;5113561;28;20514;-90
2023/01/09 05:19:04;;;;;;;16.33;4.47;;;;;;;9.80;84.92;101285.16;5113243;28;20398;-90
2023/01/09 05:21:30;;;;;;;20.73;4.00;;;;;;;9.74;84.68;101279.34;5113545;28;20027;-89
2023/01/09 05:23:56;;;;;;;15.55;3.55;;;;;;;9.76;83.26;101290.81;5077988;28;20111;-90
2023/01/09 05:26:24;;;;;;;16.83;4.28;;;;;;;9.74;82.67;101282.88;5113538;28;20024;-91
2023/01/09 05:28:51;;;;;;;16.80;4.32;;;;;;;9.80;81.88;101278.91;5116672;28;20420;-89
2023/01/09 05:31:17;;;;;;;14.63;3.80;;;;;;;9.77;81.61;101288.06;5113109;28;20057;-90
2023/01/09 05:33:43;;;;;;;31.15;5.65;;;;;;;9.68;81.94;101286.00;5095963;28;20148;-88
2023/01/09 05:36:08;;;;;;;19.10;4.40;;;;;;;9.72;82.62;101275.91;5116073;28;20593;-90
2023/01/09 05:38:34;;;;;;;29.65;4.28;;;;;;;9.73;83.07;101294.59;5114672;28;20032;-87
2023/01/09 05:40:59;;;;;;;8.77;3.40;;;;;;;9.56;83.21;101281.44;5115036;28;20049;-90
2023/01/09 05:43:25;;;;;;;19.10;4.40;;;;;;;9.64;83.53;101284.47;5112721;28;20055;-89
2023/01/09 05:45:50;;;;;;;21.10;4.60;;;;;;;9.66;83.66;101287.06;5114104;28;20028;-89
2023/01/09 05:48:16;;;;;;;39.92;5.53;;;;;;;9.66;84.70;101293.28;5115626;28;20031;-89
2023/01/09 05:50:41;;;;;;;21.52;5.22;;;;;;;9.63;84.60;101280.03;5117640;28;20190;-89
2023/01/09 05:53:06;;;;;;;28.77;4.85;;;;;;;9.76;85.13;101286.31;5117100;28;20020;-89
2023/01/09 05:55:32;;;;;;;31.88;5.90;;;;;;;9.75;84.99;101289.97;5117835;28;20445;-89
2023/01/09 05:57:58;;;;;;;23.52;6.40;;;;;;;9.75;84.48;101287.28;5098903;28;20028;-89
2023/01/09 06:00:26;;;;;;;28.52;6.05;;;;;;;9.82;83.67;101299.34;5118247;28;20030;-88
2023/01/09 06:02:52;;;;;;;42.65;6.60;;;;;;;9.75;83.91;101300.72;5117432;28;20038;-89
2023/01/09 06:05:17;;;;;;;31.50;7.30;;;;;;;9.74;84.14;101274.84;5098355;28;20027;-90
2023/01/09 06:07:43;;;;;;;16.58;4.00;;;;;;;9.69;83.91;101293.06;5098918;28;20023;-90
2023/01/09 06:10:13;;;;;;;21.30;4.75;;;;;;;9.70;84.24;101296.63;5116041;28;20038;-89
2023/01/09 06:12:40;;;;;;;30.02;5.97;;;;;;;9.80;84.45;101295.91;5116711;28;20019;-90
2023/01/09 06:15:06;;;;;;;29.15;5.22;;;;;;;9.79;84.81;101304.91;5116100;28;20035;-89
2023/01/09 06:17:31;;;;;;;19.05;3.95;;;;;;;9.69;83.58;101294.91;5098287;28;20039;-88
2023/01/09 06:19:57;;;;;;;26.35;5.63;;;;;;;9.69;82.89;101293.06;5117393;28;20031;-89
2023/01/09 06:22:22;;;;;;;32.05;5.95;;;;;;;9.69;82.22;101297.59;5117874;28;20106;-88
2023/01/09 06:24:48;;;;;;;26.83;4.68;;;;;;;9.83;82.41;101298.38;5117171;28;20031;-89
2023/01/09 06:27:13;;;;;;;12.90;4.93;;;;;;;9.75;82.84;101276.53;5117447;28;20040;-89
2023/01/09 06:29:39;;;;;;;25.55;5.05;;;;;;;9.78;83.11;101292.44;5116526;28;20130;-88
2023/01/09 06:32:04;;;;;;;21.52;4.60;;;;;;;9.92;83.77;101298.72;5116647;28;20446;-89
2023/01/09 06:34:30;;;;;;;18.85;5.10;;;;;;;9.85;82.33;101288.38;5116198;28;20394;-89
2023/01/09 06:36:56;;;;;;;23.40;4.43;;;;;;;9.89;82.11;101298.94;5116155;28;20028;-89
2023/01/09 06:39:21;;;;;;;29.80;5.35;;;;;;;9.85;82.53;101284.84;5117967;28;20028;-90
2023/01/09 06:41:46;;;;;;;26.13;5.63;;;;;;;10.02;82.61;101294.44;5120606;28;20080;-89
2023/01/09 06:44:12;;;;;;;21.35;4.63;;;;;;;10.09;82.96;101295.75;5118559;28;20474;-88
2023/01/09 06:46:37;;;;;;;17.05;4.40;;;;;;;10.02;82.88;101283.69;5116824;28;20394;-88
2023/01/09 06:49:03;;;;;;;26.42;4.50;;;;;;;9.95;81.95;101277.88;5117068;28;20031;-90
2023/01/09 06:51:28;;;;;;;30.02;5.18;;;;;;;10.07;81.57;101281.53;5116474;28;20502;-89
2023/01/09 06:53:54;;;;;;;34.85;6.20;;;;;;;10.12;81.17;101290.16;5118451;28;20061;-89
2023/01/09 06:56:19;;;;;;;23.55;4.95;;;;;;;10.09;82.06;101268.88;5116426;28;20658;-89
2023/01/09 06:58:45;;;;;;;20.98;6.22;;;;;;;10.15;82.09;101288.13;5117694;28;20020;-90
2023/01/09 07:01:10;;;;;;;20.83;4.45;;;;;;;10.13;80.78;101282.00;5098698;28;20020;-88
2023/01/09 07:03:36;;;;;;;24.05;3.97;;;;;;;10.16;79.99;101295.25;5125212;28;20083;-89
2023/01/09 07:06:01;;;;;;;12.63;3.83;;;;;;;10.17;79.50;101282.66;5120696;28;20129;-89
2023/01/09 07:08:27;;;;;;;27.27;4.45;;;;;;;10.21;79.89;101286.88;5097763;28;20050;-89
2023/01/09 07:10:52;;;;;;;24.63;5.13;;;;;;;10.12;80.35;101269.50;5116824;28;20031;-89
2023/01/09 07:13:18;;;;;;;13.27;4.07;;;;;;;10.12;80.55;101274.03;5100333;28;20026;-89
2023/01/09 07:15:43;;;;;;;35.95;6.65;;;;;;;10.23;81.49;101284.94;5119375;28;20057;-88
2023/01/09 07:18:08;;;;;;;20.65;4.95;;;;;;;10.19;81.61;101284.28;5117969;28;20140;-91
2023/01/09 07:20:34;;;;;;;16.13;4.18;;;;;;;10.19;80.92;101281.59;5118704;28;20024;-90
2023/01/09 07:23:00;;;;;;;18.08;4.38;;;;;;;10.20;80.12;101282.47;5098152;28;20027;-88
2023/01/09 07:25:25;;;;;;;15.18;4.63;;;;;;;10.24;79.82;101273.22;5115439;28;20106;-90
2023/01/09 07:27:50;;;;;;;24.98;4.90;;;;;;;10.35;79.80;101281.38;5114713;28;20091;-89
2023/01/09 07:30:16;;;;;;;21.95;4.43;;;;;;;10.49;79.86;101283.97;5115231;28;20607;-89
2023/01/09 07:32:42;;;;;;;18.30;4.60;;;;;;;10.47;79.92;101280.53;5096933;28;20030;-91
2023/01/09 07:35:08;;;;;;;21.65;5.25;;;;;;;10.58;79.65;101282.47;5114829;28;20502;-89
2023/01/09 07:37:34;;;;;;;54.50;6.90;;;;;;;10.59;78.94;101279.66;5115392;28;20053;-87
2023/01/09 07:40:00;;;;;;;12.80;5.40;;;;;;;10.62;79.38;101282.13;5115567;28;20070;-91
2023/01/09 07:42:25;;;;;;;23.23;4.30;;;;;;;10.49;79.37;101262.44;5097069;28;20030;-88
2023/01/09 07:44:51;;;;;;;29.50;4.53;;;;;;;10.74;79.59;101286.63;5115184;28;20031;-89
2023/01/09 07:47:16;;;;;;;21.40;5.90;;;;;;;10.70;80.19;101273.53;5114944;28;20024;-89
2023/01/09 07:49:42;;;;;;;25.00;6.57;;;;;;;10.67;80.48;101289.88;5115677;28;20024;-91
2023/01/09 07:52:07;;;;;;;11.95;4.43;;;;;;;10.64;80.06;101272.09;5096265;28;20059;-89
2023/01/09 07:54:33;;;;;;;25.88;4.38;;;;;;;10.63;78.96;101274.91;5095113;28;20020;-90
2023/01/09 07:56:58;;;;;;;32.22;5.25;;;;;;;10.68;79.55;101279.00;5094611;28;20024;-89
2023/01/09 07:59:25;;;;;;;24.45;5.82;;;;;;;10.55;79.19;101262.00;5094211;28;20024;-89
2023/01/09 08:01:50;;;;;;;26.08;8.00;;;;;;;10.64;79.80;101264.03;5093459;28;20411;-91
2023/01/09 08:04:15;;;;;;;26.27;6.38;;;;;;;10.72;79.77;101258.97;5074194;28;20032;-91
2023/01/09 08:06:41;;;;;;;19.30;5.28;;;;;;;10.70;77.57;101276.22;5056436;28;20040;-89
2023/01/09 08:09:07;;;;;;;31.30;4.55;;;;;;;10.66;77.33;101258.56;5071224;28;20032;-89
2023/01/09 08:11:32;;;;;;;32.13;4.53;;;;;;;10.64;76.94;101266.72;5054089;28;20029;-89
2023/01/09 08:13:58;;;;;;;48.20;6.07;;;;;;;10.72;77.64;101267.06;5072398;28;20068;-87
2023/01/09 08:16:23;;;;;;;17.77;5.03;;;;;;;10.73;77.34;101260.69;5071206;28;20028;-91
2023/01/09 08:18:49;;;;;;;32.97;6.72;;;;;;;10.85;77.49;101269.72;5072422;28;20049;-91
2023/01/09 08:21:14;;;;;;;21.00;6.50;;;;;;;10.76;77.08;101255.09;5071645;28;20523;-90
2023/01/09 08:23:40;;;;;;;20.90;5.95;;;;;;;10.93;76.90;101267.31;5071278;28;20201;-91
2023/01/09 08:26:05;;;;;;;20.02;4.03;;;;;;;10.89;76.69;101255.94;5055658;28;20075;-90
2023/01/09 08:28:31;;;;;;;21.17;5.43;;;;;;;10.97;77.42;101263.47;5071130;28;20024;-90
2023/01/09 08:30:57;;;;;;;21.00;6.55;;;;;;;10.98;77.04;101275.91;5071103;28;20150;-90
2023/01/09 08:33:22;;;;;;;30.35;7.07;;;;;;;10.95;77.05;101251.91;5071150;28;20503;-90
2023/01/09 08:35:48;;;;;;;22.58;4.88;;;;;;;10.96;75.92;101271.63;5082337;28;20105;-89
2023/01/09 08:38:13;;;;;;;20.02;4.75;;;;;;;10.82;76.01;101260.03;5093737;28;20020;-89
2023/01/09 08:40:39;;;;;;;16.98;4.40;;;;;;;10.70;76.09;101252.84;5094253;28;20028;-89
2023/01/09 08:48:33;;;;;;;20.27;4.78;;;;;;;10.87;77.18;101244.41;5098373;28;20098;-90
2023/01/09 08:50:58;;;;;;;31.13;5.25;;;;;;;10.90;76.80;101241.50;5121097;28;20095;-90
2023/01/09 08:53:23;;;;;;;28.77;5.43;;;;;;;10.91;77.21;101247.75;5136119;28;20024;-89
2023/01/09 08:55:49;;;;;;;21.63;5.32;;;;;;;10.96;77.39;101239.31;5135572;28;20027;-88
2023/01/09 08:58:14;;;;;;;20.10;5.72;;;;;;;11.06;78.33;101243.06;5136295;28;20027;-88
2023/01/09 09:00:40;;;;;;;30.50;6.18;;;;;;;11.12;77.67;101245.31;5136045;28;20031;-88
2023/01/09 09:03:05;;;;;;;23.45;5.07;;;;;;;11.21;77.78;101244.63;5125208;28;20023;-89
2023/01/09 09:05:31;;;;;;;40.25;6.30;;;;;;;11.26;77.29;101239.75;5118429;28;20023;-90
2023/01/09 09:07:58;;;;;;;28.55;4.85;;;;;;;11.18;76.78;101226.88;5098493;28;20511;-90
2023/01/09 09:10:28;;;;;;;22.77;5.32;;;;;;;11.23;76.74;101232.78;5113343;28;20037;-89
2023/01/09 09:12:55;;;;;;;13.77;4.93;;;;;;;11.18;77.36;101220.63;5096048;28;20343;-91
2023/01/09 09:15:22;;;;;;;23.98;5.35;;;;;;;11.25;76.87;101213.81;5115008;28;20053;-88
2023/01/09 09:17:53;;;;;;;21.67;6.72;;;;;;;11.22;77.06;101190.66;5116495;28;20083;-89
2023/01/09 09:20:20;;;;;;;20.42;5.85;;;;;;;11.40;76.60;101207.28;5097175;28;20020;-90
2023/01/09 09:22:46;;;;;;;21.15;5.80;;;;;;;11.20;77.04;101199.81;5115819;28;20024;-91
2023/01/09 09:25:13;;;;;;;24.90;5.78;;;;;;;11.26;77.61;101189.44;5119796;28;20022;-89
2023/01/09 09:27:39;;;;;;;29.02;6.40;;;;;;;11.42;77.02;101187.34;5121187;28;20551;-89
2023/01/09 09:30:05;;;;;;;12.00;4.32;;;;;;;11.50;76.31;101175.94;5121275;28;20031;-90
2023/01/09 09:32:31;;;;;;;26.05;6.18;;;;;;;11.69;75.79;101191.56;5120697;28;20028;-90
2023/01/09 09:34:57;;;;;;;21.17;6.10;;;;;;;11.67;74.62;101183.63;5101573;28;20535;-89
2023/01/09 09:37:22;;;;;;;23.13;4.88;;;;;;;11.57;74.76;101171.81;5120623;28;20028;-90
2023/01/09 09:39:48;;;;;;;27.23;7.38;;;;;;;11.64;75.47;101175.78;5119580;28;20024;-90
2023/01/09 09:45:51;;;;;;;14.52;4.80;;;;;;;11.51;75.34;101184.91;5119647;28;20107;-90
2023/01/09 09:48:38;;;;;;;18.58;7.03;;;;;;;11.32;75.99;101183.59;5118031;28;20031;-90
2023/01/09 09:51:06;;;;;;;31.10;5.53;;;;;;;11.39;75.42;101173.22;5117407;28;20063;-90
2023/01/09 09:53:53;;;;;;;19.20;5.55;;;;;;;11.62;75.42;101152.63;5099304;28;20053;-91
2023/01/09 09:56:21;;;;;;;14.43;5.72;;;;;;;11.69;74.21;101160.09;5117590;28;20028;-90
2023/01/09 09:58:53;;;;;;;21.65;5.43;;;;;;;11.76;74.47;101160.53;5117391;28;20043;-90
2023/01/09 10:01:26;;;;;;;20.35;5.47;;;;;;;11.75;73.24;101167.75;5117048;28;20491;-90
2023/01/09 10:03:58;;;;;;;20.17;6.47;;;;;;;11.69;73.38;101151.16;5099317;28;20028;-90
2023/01/09 10:06:28;;;;;;;22.80;5.82;;;;;;;11.87;73.39;101157.84;5118226;28;20027;-89
2023/01/09 10:09:09;;;;;;;22.60;5.80;;;;;;;11.78;74.18;101140.56;5098422;28;20031;-90
2023/01/09 10:11:56;;;;;;;26.67;5.20;;;;;;;11.84;74.68;101136.50;5116900;28;20696;-90
2023/01/09 10:14:22;;;;;;;31.55;5.82;;;;;;;11.93;73.79;101146.56;5116417;28;20059;-90
2023/01/09 10:16:53;;;;;;;14.10;5.50;;;;;;;11.82;73.94;101133.94;5103503;28;20467;-90
2023/01/09 10:20:03;;;;;;;16.02;5.47;;;;;;;11.80;74.43;101133.19;5101571;28;20122;-89
2023/01/09 10:22:38;;;;;;;23.98;5.15;;;;;;;11.81;74.61;101132.22;5014418;28;20096;-90
2023/01/09 10:25:15;;;;;;;54.70;15.60;;;;;;;11.68;73.58;101142.19;5013613;28;20456;-89
2023/01/09 10:27:52;;;;;;;22.45;8.02;;;;;;;11.71;74.86;101127.69;5014525;28;20039;-90
2023/01/09 10:30:40;;;;;;;24.35;6.47;;;;;;;11.66;75.09;101116.38;5023597;28;20030;-90
2023/01/09 10:33:43;;;;;;;33.65;7.00;;;;;;;11.82;75.66;101131.25;4994918;28;20489;-90
2023/01/09 10:36:29;;;;;;;28.17;7.50;;;;;;;11.70;74.75;101124.13;5012029;28;20033;-91
2023/01/09 10:38:58;;;;;;;35.60;6.57;;;;;;;11.66;75.12;101105.59;5012205;28;20165;-90
2023/01/09 10:41:33;;;;;;;24.05;7.50;;;;;;;11.71;75.23;101111.53;5011434;28;20041;-89
2023/01/09 10:44:14;;;;;;;26.00;6.55;;;;;;;11.78;74.89;101110.03;4995422;28;20026;-87
2023/01/09 10:46:53;;;;;;;37.67;8.68;;;;;;;11.99;73.92;101100.25;5015631;28;20189;-91
2023/01/09 10:49:20;;;;;;;24.05;6.03;;;;;;;12.10;74.21;101089.50;5012987;28;20041;-91
2023/01/09 10:51:59;;;;;;;12.18;5.18;;;;;;;12.20;74.08;101084.22;4995101;28;20062;-89
2023/01/09 10:54:24;;;;;;;27.70;6.05;;;;;;;12.09;73.13;101062.63;4993682;28;20473;-90
2023/01/09 10:56:54;;;;;;;23.52;5.63;;;;;;;12.05;73.09;101074.66;5004396;28;20177;-91
2023/01/09 10:59:19;;;;;;;27.63;6.15;;;;;;;11.96;74.56;101079.78;5081082;28;20074;-89
2023/01/09 11:01:45;;;;;;;26.67;6.18;;;;;;;12.11;73.80;101084.97;5120814;28;20027;-88
2023/01/09 11:04:29;;;;;;;26.65;6.38;;;;;;;12.06;73.43;101071.84;5099205;28;20026;-89
2023/01/09 11:06:59;;;;;;;18.45;6.40;;;;;;;12.02;74.06;101080.31;5121057;28;20036;-90
2023/01/09 11:09:25;;;;;;;33.80;7.05;;;;;;;12.06;74.68;101065.56;5128085;28;20028;-88
2023/01/09 11:11:51;;;;;;;32.88;6.53;;;;;;;12.24;74.18;101069.47;5118681;28;20451;-90
2023/01/09 11:14:26;;;;;;;43.47;6.90;;;;;;;12.28;73.92;101076.34;5113461;28;20030;-91
2023/01/09 11:16:51;;;;;;;19.45;5.97;;;;;;;12.28;74.56;101076.34;5095551;28;20074;-89
2023/01/09 11:19:17;;;;;;;31.90;7.03;;;;;;;12.15;74.54;101049.53;5114042;28;20050;-89
2023/01/09 11:21:43;;;;;;;30.48;7.40;;;;;;;12.07;74.07;101057.38;5112842;28;20073;-91
2023/01/09 11:24:26;;;;;;;45.22;7.72;;;;;;;12.24;74.54;101066.78;5114112;28;20500;-88
2023/01/09 11:27:11;;;;;;;19.75;6.43;;;;;;;12.22;74.80;101061.53;5094319;28;20114;-91
2023/01/09 11:29:37;;;;;;;24.25;6.22;;;;;;;12.27;73.45;101069.22;5099406;28;20031;-91
2023/01/09 11:32:02;;;;;;;19.60;6.50;;;;;;;12.23;74.26;101065.09;5114668;28;20028;-89
2023/01/09 11:34:31;;;;;;;28.88;7.72;;;;;;;12.14;74.65;101063.97;5113778;28;20402;-91
2023/01/09 11:37:09;;;;;;;45.78;8.93;;;;;;;12.12;74.25;101055.16;5094077;28;20051;-88
2023/01/09 11:39:40;;;;;;;37.17;9.73;;;;;;;12.25;74.56;101065.81;5113468;28;20027;-89
2023/01/09 11:42:18;;;;;;;15.45;7.65;;;;;;;12.36;74.48;101057.69;5116027;28;20475;-89